Latest Coastal Weather Observations for Wadeye (Port Keats)

IDD60701

Issued at 6:45 am CST Tuesday 21 October 2014 (issued every 10 minutes, with the page automatically refreshed every 10 minutes)

About coastal observations | Map of coastal stations | Coastal observations for NT | Marine services | Other Formats
Station Details ID: 014948 Name: PORT KEATS AIRPORT Lat: -14.25 Lon: 129.53 Height: 28.0 m
Data from the previous 72 hours. | See also: Recent months at Wadeye (Port Keats)
Date/Time
CST
Temp

°C
Wind Pressure Rain
since 9am
mm
Weather Cloud Vis
km
Sea
Height
m
Swell
Dir
 
Speed
knots
Gust
knots
hPa Trend Height
m
Period
s
Dir
21/06:30am 25.3 NW 0 0 1014.0 - 0.2 - - - - - - -
21/06:00am 26.1 ESE 3 4 1013.9 - 0.2 - - - - - - -
21/05:30am 25.5 ESE 3 5 1013.6 - 0.2 - - - - - - -
21/05:00am 26.0 N 3 5 1013.1 - 0.2 - - - - - - -
21/04:30am 26.4 NNW 4 6 1012.6 - 0.2 - - - - - - -
21/04:00am 25.1 NW 2 5 1012.3 - 0.2 - - - - - - -
21/03:30am 24.9 CALM 0 0 1012.3 - 0.2 - - - - - - -
21/03:00am 24.9 NNE 4 5 1012.2 - 0.2 - - - - - - -
21/02:30am 23.7 NW 1 4 1011.8 - 0.2 - - - - - - -
21/02:00am 23.8 CALM 0 0 1012.1 - 0.2 - - - - - - -
21/01:30am 24.7 CALM 0 0 1012.4 - 0.2 - - - - - - -
21/01:00am 24.8 CALM 0 1 1012.6 - 0.2 - - - - - - -
21/12:30am 25.3 E 2 4 1012.9 - 0.2 - - - - - - -
21/12:00am 25.2 ENE 0 0 1012.9 - 0.2 - - - - - - -
 
Date/Time
CST
Temp

°C
Wind Pressure Rain
since 9am
mm
Weather Cloud Vis
km
Sea
Height
m
Swell
Dir
 
Speed
knots
Gust
knots
hPa Trend Height
m
Period
s
Dir
20/11:30pm 25.3 CALM 0 0 1012.9 - 0.2 - - - - - - -
20/11:00pm 25.4 CALM 0 0 1012.8 - 0.2 - - - - - - -
20/10:30pm 26.0 CALM 0 3 1012.7 - 0.2 - - - - - - -
20/10:00pm 26.0 CALM 0 2 1012.5 - 0.2 - - - - - - -
20/09:30pm 25.7 WSW 3 4 1012.3 - 0.2 - - - - - - -
20/09:00pm 26.5 W 2 3 1012.1 - 0.2 - - - - - - -
20/08:30pm 26.9 W 1 3 1011.9 - 0.2 - - - - - - -
20/08:00pm 27.1 WSW 3 4 1011.4 - 0.2 - - - - - - -
20/07:30pm 27.6 W 3 4 1011.2 - 0.2 - - - - - - -
20/07:00pm 28.1 W 4 7 1010.8 - 0.2 - - - - - - -
20/06:30pm 28.9 WNW 5 8 1010.5 - 0.2 - - - - - - -
20/06:00pm 29.5 W 7 11 1010.2 - 0.2 - - - - - - -
20/05:30pm 30.0 W 8 13 1010.2 - 0.2 - - - - - - -
20/05:00pm 29.9 W 9 12 1010.0 - 0.2 - - - - - - -
20/04:30pm 31.0 W 8 13 1010.1 - 0.2 - - - - - - -
20/04:00pm 30.6 W 9 14 1010.4 - 0.2 - - - - - - -
20/03:30pm 30.1 W 8 14 1010.7 - 0.2 - - - - - - -
20/03:00pm 30.6 WSW 9 14 1011.0 - 0.2 Recent precip. - - - - - -
20/02:30pm 30.3 WSW 10 16 1011.3 - 0.2 - - - - - - -
20/02:00pm 28.9 WSW 8 11 1011.7 - 0.0 - - - - - - -
20/01:30pm 30.7 WNW 8 13 1012.2 - 0.0 - - - - - - -
20/01:00pm 29.4 NW 10 13 1012.7 - 0.0 - - - - - - -
20/12:30pm 31.2 W 6 12 1013.3 - 0.0 - - - - - - -
20/12:00pm 30.7 WSW 7 11 1013.9 - 0.0 - - - - - - -
20/11:30am 31.2 NNW 8 11 1014.3 - 0.0 - - - - - - -
20/11:00am 30.4 WNW 6 8 1014.6 - 0.0 - - - - - - -
20/10:30am 30.3 WSW 4 6 1015.0 - 0.0 - - - - - - -
20/10:00am 29.7 W 4 6 1015.4 - 0.0 - - - - - - -
20/09:30am 29.7 WNW 5 7 1015.3 - 0.0 - - - - - - -
20/09:00am 30.6 N 4 8 1015.0 - 0.0 - - - - - - -
20/08:30am 28.9 N 2 4 1015.0 - 0.0 - - - - - - -
20/08:00am 27.1 CALM 0 0 1014.8 - 0.0 - - - - - - -
20/07:30am 26.0 E 2 4 1014.3 - 0.0 - - - - - - -
20/07:00am 25.4 SE 2 3 1013.8 - 0.0 - - - - - - -
20/06:30am 24.9 CALM 0 0 1013.6 - 0.0 - - - - - - -
20/06:00am 25.1 CALM 0 0 1013.2 - 0.0 - - - - - - -
20/05:30am 24.4 CALM 0 0 1012.8 - 0.0 - - - - - - -
20/05:00am 24.6 CALM 0 0 1012.4 - 0.0 - - - - - - -
20/04:30am 24.5 CALM 0 0 1012.2 - 0.0 - - - - - - -
20/04:00am 25.0 CALM 0 0 1012.1 - 0.0 - - - - - - -
20/03:30am 26.0 CALM 0 0 1012.1 - 0.0 - - - - - - -
20/03:00am 26.2 NE 3 5 1012.2 - 0.0 - - - - - - -
20/02:30am 25.9 ENE 2 4 1012.1 - 0.0 - - - - - - -
20/02:00am 26.2 NNE 4 5 1012.2 - 0.0 - - - - - - -
20/01:30am 25.7 NW 3 5 1012.0 - 0.0 - - - - - - -
20/01:00am 25.7 NW 3 5 1012.3 - 0.0 - - - - - - -
20/12:30am 26.4 NNW 3 5 1012.5 - 0.0 - - - - - - -
20/12:00am 25.8 W 1 3 1012.7 - 0.0 - - - - - - -
 
Date/Time
CST
Temp

°C
Wind Pressure Rain
since 9am
mm
Weather Cloud Vis
km
Sea
Height
m
Swell
Dir
 
Speed
knots
Gust
knots
hPa Trend Height
m
Period
s
Dir
19/11:30pm 26.8 CALM 0 0 1012.9 - 0.0 - - - - - - -
19/11:00pm 27.2 NW 3 5 1012.7 - 0.0 - - - - - - -
19/10:30pm 27.3 WNW 4 5 1012.6 - 0.0 - - - - - - -
19/10:00pm 27.8 NNW 4 7 1012.5 - 0.0 - - - - - - -
19/09:30pm 27.6 NW 4 6 1012.4 - 0.0 - - - - - - -
19/09:00pm 27.5 WNW 4 6 1012.1 - 0.0 - - - - - - -
19/08:30pm 27.7 WNW 4 5 1011.7 - 0.0 - - - - - - -
19/08:00pm 28.0 WNW 4 6 1011.5 - 0.0 - - - - - - -
19/07:30pm 28.2 W 5 8 1011.0 - 0.0 - - - - - - -
19/07:00pm 28.4 W 6 9 1010.7 - 0.0 - - - - - - -
19/06:30pm 29.1 W 7 12 1010.3 - 0.0 - - - - - - -
19/06:00pm 30.2 W 8 14 1010.0 - 0.0 - - - - - - -
19/05:30pm 30.5 W 9 13 1009.6 - 0.0 - - - - - - -
19/05:00pm 31.0 W 9 13 1009.5 - 0.0 - - - - - - -
19/04:30pm 31.6 W 8 13 1009.6 - 0.0 - - - - - - -
19/04:00pm 31.7 W 9 16 1009.7 - 0.0 - - - - - - -
19/03:30pm 32.4 W 9 13 1009.9 - 0.0 - - - - - - -
19/03:00pm 32.7 W 9 16 1010.1 - 0.0 - - - - - - -
19/02:30pm 32.9 WNW 9 15 1010.5 - 0.0 - - - - - - -
19/02:00pm 32.2 NW 9 14 1010.7 - 0.0 - - - - - - -
19/01:30pm 33.3 NW 9 13 1011.1 - 0.0 - - - - - - -
19/01:00pm 32.8 NW 9 14 1011.7 - 0.0 - - - - - - -
19/12:30pm 32.7 NW 7 13 1012.3 - 0.0 - - - - - - -
19/12:00pm 32.3 NW 6 10 1012.8 - 0.0 - - - - - - -
19/11:30am 32.7 N 8 12 1013.4 - 0.0 - - - - - - -
19/11:00am 32.5 N 8 12 1013.9 - 0.0 - - - - - - -
19/10:30am 31.5 N 7 11 1014.2 - 0.0 - - - - - - -
19/10:00am 30.1 N 7 11 1014.5 - 0.0 - - - - - - -
19/09:30am 30.1 NNE 6 11 1014.6 - 0.0 - - - - - - -
19/09:00am 28.8 N 5 7 1014.6 - 0.0 - - - - - - -
19/08:30am 28.7 ENE 4 6 1014.4 - 0.0 - - - - - - -
19/08:00am 26.7 E 5 7 1014.4 - 0.0 - - - - - - -
19/07:30am 25.6 E 4 5 1014.0 - 0.0 - - - - - - -
19/07:00am 24.6 E 1 4 1013.5 - 0.0 - - - - - - -
19/06:30am 24.1 ENE 5 6 1013.2 - 0.0 - - - - - - -
19/06:00am 24.0 E 5 6 1012.7 - 0.0 - - - - - - -
19/05:30am 23.1 SE 3 5 1012.3 - 0.0 - - - - - - -
19/05:00am 22.3 E 1 4 1012.0 - 0.0 - - - - - - -
19/04:30am 24.0 CALM 0 0 1011.6 - 0.0 - - - - - - -
19/04:00am 24.1 SE 4 5 1011.4 - 0.0 - - - - - - -
19/03:30am 23.0 SE 1 3 1011.1 - 0.0 - - - - - - -
19/03:00am 23.7 E 4 5 1011.3 - 0.0 - - - - - - -
19/02:30am 22.7 CALM 0 0 1011.0 - 0.0 - - - - - - -
19/02:00am 22.9 CALM 0 0 1011.0 - 0.0 - - - - - - -
19/01:30am 22.8 SSE 2 4 1011.1 - 0.0 - - - - - - -
19/01:00am 23.0 CALM 0 0 1011.5 - 0.0 - - - - - - -
19/12:30am 23.6 CALM 0 0 1011.7 - 0.0 - - - - - - -
19/12:00am 24.0 CALM 0 0 1012.0 - 0.0 - - - - - - -
 
Date/Time
CST
Temp

°C
Wind Pressure Rain
since 9am
mm
Weather Cloud Vis
km
Sea
Height
m
Swell
Dir
 
Speed
knots
Gust
knots
hPa Trend Height
m
Period
s
Dir
18/11:30pm 24.3 CALM 0 0 1012.2 - 0.0 - - - - - - -
18/11:00pm 24.6 CALM 0 0 1012.1 - 0.0 - - - - - - -
18/10:30pm 25.0 CALM 0 0 1011.8 - 0.0 - - - - - - -
18/10:00pm 26.1 CALM 0 0 1011.8 - 0.0 - - - - - - -
18/09:30pm 26.0 SW 1 4 1011.5 - 0.0 - - - - - - -
18/09:00pm 26.2 WSW 3 4 1011.4 - 0.0 - - - - - - -
18/08:30pm 27.0 WSW 3 4 1011.1 - 0.0 - - - - - - -
18/08:00pm 27.4 W 3 5 1011.0 - 0.0 - - - - - - -
18/07:30pm 27.7 W 4 7 1010.8 - 0.0 - - - - - - -
18/07:00pm 28.1 WNW 6 10 1010.5 - 0.0 - - - - - - -
18/06:30pm 28.9 WNW 6 11 1010.3 - 0.0 - - - - - - -
18/06:00pm 29.9 WNW 7 11 1010.0 - 0.0 - - - - - - -
18/05:30pm 31.2 W 7 12 1009.8 - 0.0 - - - - - - -
18/05:00pm 31.1 WNW 8 12 1009.5 - 0.0 - - - - - - -
18/04:30pm 31.0 W 8 14 1009.7 - 0.0 - - - - - - -
18/04:00pm 31.4 W 9 14 1009.8 - 0.0 - - - - - - -
18/03:30pm 32.2 WNW 9 16 1009.8 - 0.0 - - - - - - -
18/03:00pm 32.3 WNW 10 15 1010.1 - 0.0 - - - - - - -
18/02:30pm 32.5 WNW 10 14 1010.4 - 0.0 - - - - - - -
18/02:00pm 32.4 NW 12 16 1010.8 - 0.0 - - - - - - -
18/01:30pm 32.6 NNW 10 17 1011.2 - 0.0 - - - - - - -
18/01:00pm 33.0 NNW 9 12 1011.8 - 0.0 - - - - - - -
18/12:30pm 32.9 N 10 15 1012.4 - 0.0 - - - - - - -
18/12:00pm 33.1 N 9 13 1012.9 - 0.0 - - - - - - -
18/11:30am 33.4 N 7 12 1013.4 - 0.0 - - - - - - -
18/11:00am 32.8 N 7 11 1013.7 - 0.0 - - - - - - -
18/10:30am 31.9 NW 6 9 1013.9 - 0.0 - - - - - - -
18/10:00am 31.8 NNE 6 9 1014.0 - 0.0 - - - - - - -
18/09:30am 30.8 N 3 6 1014.1 - 0.0 - - - - - - -
18/09:00am 29.7 SE 3 5 1014.1 - 0.0 - - - - - - -
18/08:30am 28.5 ESE 2 4 1014.0 - 0.0 - - - - - - -
18/08:00am 24.8 S 2 4 1013.6 - 0.0 - - - - - - -
18/07:30am 20.8 SSE 1 3 1013.3 - 0.0 - - - - - - -
18/07:00am 18.6 SSE 4 5 1013.1 - 0.0 - - - - - - -

Other Formats:

Comma delimited format used in spreadsheet applications
http://www.bom.gov.au/fwo/IDD60701/IDD60701.95111.axf

JavaScript Object Notation format (JSON) in row-major order
http://www.bom.gov.au/fwo/IDD60701/IDD60701.95111.json